<?xml version="1.0" encoding="UTF-8" standalone="no" ?>
<gpx xmlns="http://www.topografix.com/GPX/1/1" xmlns:xsi="http://www.w3.org/2001/XMLSchema-instance" xsi:schemaLocation="http://www.topografix.com/GPX/1/1 http://www.topografix.com/GPX/1/1/gpx.xsd" version="1.1" creator="VisuGPX - https://www.visugpx.com">
  <metadata>
    <name>Le bois de Baron-sur-Odon (14)</name>
    <desc><![CDATA[Boucle au départ de la mairie.]]></desc>
  </metadata>
  <trk>
    <name><![CDATA[Baron sur Odon]]></name>
    <trkseg>
      <trkpt lat="49.13345" lon="-0.47867">
        <ele>78</ele>
        <time>2011-01-04T15:08:11Z</time>
      </trkpt>
      <trkpt lat="49.13333" lon="-0.47878">
        <ele>79</ele>
        <time>2011-01-04T15:08:37Z</time>
      </trkpt>
      <trkpt lat="49.13332" lon="-0.4788">
        <ele>79</ele>
        <time>2011-01-04T15:08:39Z</time>
      </trkpt>
      <trkpt lat="49.13315" lon="-0.47885">
        <ele>79</ele>
        <time>2011-01-04T15:08:57Z</time>
      </trkpt>
      <trkpt lat="49.13297" lon="-0.47885">
        <ele>79</ele>
        <time>2011-01-04T15:09:15Z</time>
      </trkpt>
      <trkpt lat="49.13282" lon="-0.47902">
        <ele>79</ele>
        <time>2011-01-04T15:09:33Z</time>
      </trkpt>
      <trkpt lat="49.1327" lon="-0.47923">
        <ele>79</ele>
        <time>2011-01-04T15:09:51Z</time>
      </trkpt>
      <trkpt lat="49.13278" lon="-0.47942">
        <ele>79</ele>
        <time>2011-01-04T15:10:09Z</time>
      </trkpt>
      <trkpt lat="49.13288" lon="-0.47972">
        <ele>79</ele>
        <time>2011-01-04T15:10:27Z</time>
      </trkpt>
      <trkpt lat="49.13295" lon="-0.47992">
        <ele>79</ele>
        <time>2011-01-04T15:10:40Z</time>
      </trkpt>
      <trkpt lat="49.13298" lon="-0.48013">
        <ele>79</ele>
        <time>2011-01-04T15:10:52Z</time>
      </trkpt>
      <trkpt lat="49.13295" lon="-0.48035">
        <ele>79</ele>
        <time>2011-01-04T15:11:04Z</time>
      </trkpt>
      <trkpt lat="49.1329" lon="-0.48065">
        <ele>79</ele>
        <time>2011-01-04T15:11:24Z</time>
      </trkpt>
      <trkpt lat="49.1328" lon="-0.48082">
        <ele>78</ele>
        <time>2011-01-04T15:11:36Z</time>
      </trkpt>
      <trkpt lat="49.13263" lon="-0.48097">
        <ele>77</ele>
        <time>2011-01-04T15:11:54Z</time>
      </trkpt>
      <trkpt lat="49.1326" lon="-0.48123">
        <ele>75</ele>
        <time>2011-01-04T15:12:12Z</time>
      </trkpt>
      <trkpt lat="49.13262" lon="-0.48152">
        <ele>73</ele>
        <time>2011-01-04T15:12:30Z</time>
      </trkpt>
      <trkpt lat="49.13267" lon="-0.48175">
        <ele>71</ele>
        <time>2011-01-04T15:12:48Z</time>
      </trkpt>
      <trkpt lat="49.13272" lon="-0.48195">
        <ele>70</ele>
        <time>2011-01-04T15:13:00Z</time>
      </trkpt>
      <trkpt lat="49.1328" lon="-0.48213">
        <ele>69</ele>
        <time>2011-01-04T15:13:12Z</time>
      </trkpt>
      <trkpt lat="49.13288" lon="-0.4823">
        <ele>69</ele>
        <time>2011-01-04T15:13:24Z</time>
      </trkpt>
      <trkpt lat="49.13293" lon="-0.48258">
        <ele>68</ele>
        <time>2011-01-04T15:13:42Z</time>
      </trkpt>
      <trkpt lat="49.13297" lon="-0.48278">
        <ele>67</ele>
        <time>2011-01-04T15:13:54Z</time>
      </trkpt>
      <trkpt lat="49.13302" lon="-0.48298">
        <ele>65</ele>
        <time>2011-01-04T15:14:06Z</time>
      </trkpt>
      <trkpt lat="49.1331" lon="-0.48315">
        <ele>65</ele>
        <time>2011-01-04T15:14:18Z</time>
      </trkpt>
      <trkpt lat="49.13318" lon="-0.48337">
        <ele>64</ele>
        <time>2011-01-04T15:14:30Z</time>
      </trkpt>
      <trkpt lat="49.13328" lon="-0.48363">
        <ele>62</ele>
        <time>2011-01-04T15:14:48Z</time>
      </trkpt>
      <trkpt lat="49.13338" lon="-0.48378">
        <ele>61</ele>
        <time>2011-01-04T15:15:00Z</time>
      </trkpt>
      <trkpt lat="49.1335" lon="-0.48393">
        <ele>60</ele>
        <time>2011-01-04T15:15:12Z</time>
      </trkpt>
      <trkpt lat="49.1336" lon="-0.48412">
        <ele>60</ele>
        <time>2011-01-04T15:15:24Z</time>
      </trkpt>
      <trkpt lat="49.13368" lon="-0.4843">
        <ele>60</ele>
        <time>2011-01-04T15:15:42Z</time>
      </trkpt>
      <trkpt lat="49.13382" lon="-0.4844">
        <ele>62</ele>
        <time>2011-01-04T15:16:20Z</time>
      </trkpt>
      <trkpt lat="49.13395" lon="-0.48445">
        <ele>63</ele>
        <time>2011-01-04T15:16:38Z</time>
      </trkpt>
      <trkpt lat="49.13408" lon="-0.48458">
        <ele>64</ele>
        <time>2011-01-04T15:17:00Z</time>
      </trkpt>
      <trkpt lat="49.13423" lon="-0.48465">
        <ele>66</ele>
        <time>2011-01-04T15:17:18Z</time>
      </trkpt>
      <trkpt lat="49.13437" lon="-0.48472">
        <ele>67</ele>
        <time>2011-01-04T15:17:36Z</time>
      </trkpt>
      <trkpt lat="49.1345" lon="-0.48478">
        <ele>66</ele>
        <time>2011-01-04T15:17:58Z</time>
      </trkpt>
      <trkpt lat="49.13463" lon="-0.48482">
        <ele>64</ele>
        <time>2011-01-04T15:18:24Z</time>
      </trkpt>
      <trkpt lat="49.13483" lon="-0.48477">
        <ele>63</ele>
        <time>2011-01-04T15:18:42Z</time>
      </trkpt>
      <trkpt lat="49.13498" lon="-0.48465">
        <ele>62</ele>
        <time>2011-01-04T15:18:54Z</time>
      </trkpt>
      <trkpt lat="49.13513" lon="-0.48458">
        <ele>61</ele>
        <time>2011-01-04T15:19:12Z</time>
      </trkpt>
      <trkpt lat="49.13527" lon="-0.48448">
        <ele>61</ele>
        <time>2011-01-04T15:19:30Z</time>
      </trkpt>
      <trkpt lat="49.13537" lon="-0.48425">
        <ele>64</ele>
        <time>2011-01-04T15:19:48Z</time>
      </trkpt>
      <trkpt lat="49.13533" lon="-0.48405">
        <ele>66</ele>
        <time>2011-01-04T15:20:12Z</time>
      </trkpt>
      <trkpt lat="49.1352" lon="-0.4839">
        <ele>71</ele>
        <time>2011-01-04T15:20:36Z</time>
      </trkpt>
      <trkpt lat="49.13518" lon="-0.48368">
        <ele>72</ele>
        <time>2011-01-04T15:20:56Z</time>
      </trkpt>
      <trkpt lat="49.13518" lon="-0.48345">
        <ele>73</ele>
        <time>2011-01-04T15:21:14Z</time>
      </trkpt>
      <trkpt lat="49.13518" lon="-0.4832">
        <ele>72</ele>
        <time>2011-01-04T15:21:26Z</time>
      </trkpt>
      <trkpt lat="49.1352" lon="-0.48292">
        <ele>72</ele>
        <time>2011-01-04T15:21:44Z</time>
      </trkpt>
      <trkpt lat="49.13525" lon="-0.4827">
        <ele>73</ele>
        <time>2011-01-04T15:22:02Z</time>
      </trkpt>
      <trkpt lat="49.13532" lon="-0.48247">
        <ele>73</ele>
        <time>2011-01-04T15:22:20Z</time>
      </trkpt>
      <trkpt lat="49.13535" lon="-0.48222">
        <ele>74</ele>
        <time>2011-01-04T15:22:38Z</time>
      </trkpt>
      <trkpt lat="49.13543" lon="-0.48238">
        <ele>71</ele>
        <time>2011-01-04T15:23:50Z</time>
      </trkpt>
      <trkpt lat="49.13557" lon="-0.4823">
        <ele>69</ele>
        <time>2011-01-04T15:24:36Z</time>
      </trkpt>
      <trkpt lat="49.13572" lon="-0.48228">
        <ele>65</ele>
        <time>2011-01-04T15:25:00Z</time>
      </trkpt>
      <trkpt lat="49.1358" lon="-0.48212">
        <ele>65</ele>
        <time>2011-01-04T15:25:18Z</time>
      </trkpt>
      <trkpt lat="49.1359" lon="-0.4819">
        <ele>67</ele>
        <time>2011-01-04T15:25:36Z</time>
      </trkpt>
      <trkpt lat="49.136" lon="-0.48173">
        <ele>69</ele>
        <time>2011-01-04T15:26:06Z</time>
      </trkpt>
      <trkpt lat="49.13607" lon="-0.48155">
        <ele>71</ele>
        <time>2011-01-04T15:26:26Z</time>
      </trkpt>
      <trkpt lat="49.1361" lon="-0.48132">
        <ele>73</ele>
        <time>2011-01-04T15:26:44Z</time>
      </trkpt>
      <trkpt lat="49.13617" lon="-0.48113">
        <ele>75</ele>
        <time>2011-01-04T15:27:10Z</time>
      </trkpt>
      <trkpt lat="49.13632" lon="-0.48115">
        <ele>76</ele>
        <time>2011-01-04T15:27:52Z</time>
      </trkpt>
      <trkpt lat="49.13645" lon="-0.48105">
        <ele>79</ele>
        <time>2011-01-04T15:28:22Z</time>
      </trkpt>
      <trkpt lat="49.13657" lon="-0.48093">
        <ele>81</ele>
        <time>2011-01-04T15:28:40Z</time>
      </trkpt>
      <trkpt lat="49.13668" lon="-0.48078">
        <ele>82</ele>
        <time>2011-01-04T15:28:58Z</time>
      </trkpt>
      <trkpt lat="49.13667" lon="-0.4805">
        <ele>83</ele>
        <time>2011-01-04T15:29:16Z</time>
      </trkpt>
      <trkpt lat="49.13662" lon="-0.4803">
        <ele>83</ele>
        <time>2011-01-04T15:29:26Z</time>
      </trkpt>
      <trkpt lat="49.13653" lon="-0.48007">
        <ele>82</ele>
        <time>2011-01-04T15:29:43Z</time>
      </trkpt>
      <trkpt lat="49.13647" lon="-0.47987">
        <ele>82</ele>
        <time>2011-01-04T15:29:55Z</time>
      </trkpt>
      <trkpt lat="49.13637" lon="-0.47962">
        <ele>82</ele>
        <time>2011-01-04T15:30:13Z</time>
      </trkpt>
      <trkpt lat="49.13628" lon="-0.47945">
        <ele>82</ele>
        <time>2011-01-04T15:30:25Z</time>
      </trkpt>
      <trkpt lat="49.13638" lon="-0.47928">
        <ele>83</ele>
        <time>2011-01-04T15:30:51Z</time>
      </trkpt>
      <trkpt lat="49.13653" lon="-0.4792">
        <ele>83</ele>
        <time>2011-01-04T15:31:11Z</time>
      </trkpt>
      <trkpt lat="49.1367" lon="-0.47907">
        <ele>83</ele>
        <time>2011-01-04T15:31:29Z</time>
      </trkpt>
      <trkpt lat="49.13687" lon="-0.47895">
        <ele>83</ele>
        <time>2011-01-04T15:31:47Z</time>
      </trkpt>
      <trkpt lat="49.137" lon="-0.47888">
        <ele>82</ele>
        <time>2011-01-04T15:31:59Z</time>
      </trkpt>
      <trkpt lat="49.13717" lon="-0.47882">
        <ele>82</ele>
        <time>2011-01-04T15:32:17Z</time>
      </trkpt>
      <trkpt lat="49.13732" lon="-0.4787">
        <ele>82</ele>
        <time>2011-01-04T15:32:35Z</time>
      </trkpt>
      <trkpt lat="49.13745" lon="-0.4786">
        <ele>81</ele>
        <time>2011-01-04T15:32:47Z</time>
      </trkpt>
      <trkpt lat="49.13758" lon="-0.4785">
        <ele>81</ele>
        <time>2011-01-04T15:32:59Z</time>
      </trkpt>
      <trkpt lat="49.13777" lon="-0.47845">
        <ele>81</ele>
        <time>2011-01-04T15:33:17Z</time>
      </trkpt>
      <trkpt lat="49.13795" lon="-0.47833">
        <ele>80</ele>
        <time>2011-01-04T15:33:35Z</time>
      </trkpt>
      <trkpt lat="49.13808" lon="-0.47828">
        <ele>80</ele>
        <time>2011-01-04T15:33:47Z</time>
      </trkpt>
      <trkpt lat="49.13825" lon="-0.4782">
        <ele>80</ele>
        <time>2011-01-04T15:34:05Z</time>
      </trkpt>
      <trkpt lat="49.1384" lon="-0.47813">
        <ele>80</ele>
        <time>2011-01-04T15:34:15Z</time>
      </trkpt>
      <trkpt lat="49.13853" lon="-0.4781">
        <ele>80</ele>
        <time>2011-01-04T15:34:35Z</time>
      </trkpt>
      <trkpt lat="49.13853" lon="-0.47788">
        <ele>80</ele>
        <time>2011-01-04T15:35:27Z</time>
      </trkpt>
      <trkpt lat="49.13867" lon="-0.47782">
        <ele>80</ele>
        <time>2011-01-04T15:36:15Z</time>
      </trkpt>
      <trkpt lat="49.1389" lon="-0.47775">
        <ele>79</ele>
        <time>2011-01-04T15:36:39Z</time>
      </trkpt>
      <trkpt lat="49.13908" lon="-0.47767">
        <ele>79</ele>
        <time>2011-01-04T15:36:57Z</time>
      </trkpt>
      <trkpt lat="49.13922" lon="-0.47762">
        <ele>79</ele>
        <time>2011-01-04T15:37:09Z</time>
      </trkpt>
      <trkpt lat="49.13935" lon="-0.47757">
        <ele>79</ele>
        <time>2011-01-04T15:37:21Z</time>
      </trkpt>
      <trkpt lat="49.13953" lon="-0.47745">
        <ele>78</ele>
        <time>2011-01-04T15:37:39Z</time>
      </trkpt>
      <trkpt lat="49.1397" lon="-0.47737">
        <ele>78</ele>
        <time>2011-01-04T15:37:57Z</time>
      </trkpt>
      <trkpt lat="49.1399" lon="-0.47725">
        <ele>78</ele>
        <time>2011-01-04T15:38:15Z</time>
      </trkpt>
      <trkpt lat="49.14005" lon="-0.47712">
        <ele>77</ele>
        <time>2011-01-04T15:38:33Z</time>
      </trkpt>
      <trkpt lat="49.14018" lon="-0.47708">
        <ele>77</ele>
        <time>2011-01-04T15:38:45Z</time>
      </trkpt>
      <trkpt lat="49.14033" lon="-0.47708">
        <ele>76</ele>
        <time>2011-01-04T15:38:55Z</time>
      </trkpt>
      <trkpt lat="49.14048" lon="-0.4771">
        <ele>75</ele>
        <time>2011-01-04T15:39:13Z</time>
      </trkpt>
      <trkpt lat="49.14062" lon="-0.47713">
        <ele>75</ele>
        <time>2011-01-04T15:39:25Z</time>
      </trkpt>
      <trkpt lat="49.14077" lon="-0.47715">
        <ele>74</ele>
        <time>2011-01-04T15:39:35Z</time>
      </trkpt>
      <trkpt lat="49.14095" lon="-0.47722">
        <ele>72</ele>
        <time>2011-01-04T15:39:53Z</time>
      </trkpt>
      <trkpt lat="49.14108" lon="-0.47727">
        <ele>71</ele>
        <time>2011-01-04T15:40:11Z</time>
      </trkpt>
      <trkpt lat="49.14122" lon="-0.47733">
        <ele>70</ele>
        <time>2011-01-04T15:40:29Z</time>
      </trkpt>
      <trkpt lat="49.14135" lon="-0.47738">
        <ele>69</ele>
        <time>2011-01-04T15:40:47Z</time>
      </trkpt>
      <trkpt lat="49.14155" lon="-0.47747">
        <ele>67</ele>
        <time>2011-01-04T15:41:05Z</time>
      </trkpt>
      <trkpt lat="49.1417" lon="-0.4775">
        <ele>65</ele>
        <time>2011-01-04T15:41:23Z</time>
      </trkpt>
      <trkpt lat="49.14187" lon="-0.4776">
        <ele>61</ele>
        <time>2011-01-04T15:41:55Z</time>
      </trkpt>
      <trkpt lat="49.14208" lon="-0.47773">
        <ele>55</ele>
        <time>2011-01-04T15:42:23Z</time>
      </trkpt>
      <trkpt lat="49.14223" lon="-0.47777">
        <ele>55</ele>
        <time>2011-01-04T15:42:41Z</time>
      </trkpt>
      <trkpt lat="49.1423" lon="-0.47795">
        <ele>55</ele>
        <time>2011-01-04T15:43:21Z</time>
      </trkpt>
      <trkpt lat="49.14232" lon="-0.47817">
        <ele>54</ele>
        <time>2011-01-04T15:43:39Z</time>
      </trkpt>
      <trkpt lat="49.14237" lon="-0.47837">
        <ele>53</ele>
        <time>2011-01-04T15:43:57Z</time>
      </trkpt>
      <trkpt lat="49.1424" lon="-0.47867">
        <ele>51</ele>
        <time>2011-01-04T15:44:30Z</time>
      </trkpt>
      <trkpt lat="49.14247" lon="-0.47887">
        <ele>49</ele>
        <time>2011-01-04T15:45:12Z</time>
      </trkpt>
      <trkpt lat="49.14255" lon="-0.47903">
        <ele>46</ele>
        <time>2011-01-04T15:45:24Z</time>
      </trkpt>
      <trkpt lat="49.14265" lon="-0.47918">
        <ele>44</ele>
        <time>2011-01-04T15:45:36Z</time>
      </trkpt>
      <trkpt lat="49.14277" lon="-0.47935">
        <ele>42</ele>
        <time>2011-01-04T15:45:53Z</time>
      </trkpt>
      <trkpt lat="49.1429" lon="-0.47943">
        <ele>40</ele>
        <time>2011-01-04T15:46:11Z</time>
      </trkpt>
      <trkpt lat="49.14305" lon="-0.47938">
        <ele>39</ele>
        <time>2011-01-04T15:46:23Z</time>
      </trkpt>
      <trkpt lat="49.14318" lon="-0.4793">
        <ele>38</ele>
        <time>2011-01-04T15:46:33Z</time>
      </trkpt>
      <trkpt lat="49.14333" lon="-0.47917">
        <ele>36</ele>
        <time>2011-01-04T15:46:43Z</time>
      </trkpt>
      <trkpt lat="49.14345" lon="-0.47903">
        <ele>35</ele>
        <time>2011-01-04T15:46:53Z</time>
      </trkpt>
      <trkpt lat="49.14358" lon="-0.47883">
        <ele>35</ele>
        <time>2011-01-04T15:47:11Z</time>
      </trkpt>
      <trkpt lat="49.14367" lon="-0.47862">
        <ele>35</ele>
        <time>2011-01-04T15:47:29Z</time>
      </trkpt>
      <trkpt lat="49.14377" lon="-0.47832">
        <ele>35</ele>
        <time>2011-01-04T15:47:47Z</time>
      </trkpt>
      <trkpt lat="49.14378" lon="-0.4781">
        <ele>36</ele>
        <time>2011-01-04T15:47:59Z</time>
      </trkpt>
      <trkpt lat="49.14387" lon="-0.47788">
        <ele>34</ele>
        <time>2011-01-04T15:48:17Z</time>
      </trkpt>
      <trkpt lat="49.14395" lon="-0.4777">
        <ele>33</ele>
        <time>2011-01-04T15:48:35Z</time>
      </trkpt>
      <trkpt lat="49.14387" lon="-0.47753">
        <ele>35</ele>
        <time>2011-01-04T15:48:47Z</time>
      </trkpt>
      <trkpt lat="49.14382" lon="-0.47732">
        <ele>36</ele>
        <time>2011-01-04T15:48:59Z</time>
      </trkpt>
      <trkpt lat="49.14385" lon="-0.47705">
        <ele>36</ele>
        <time>2011-01-04T15:49:17Z</time>
      </trkpt>
      <trkpt lat="49.1439" lon="-0.47678">
        <ele>36</ele>
        <time>2011-01-04T15:49:35Z</time>
      </trkpt>
      <trkpt lat="49.14398" lon="-0.47652">
        <ele>35</ele>
        <time>2011-01-04T15:49:55Z</time>
      </trkpt>
      <trkpt lat="49.1441" lon="-0.47633">
        <ele>35</ele>
        <time>2011-01-04T15:50:13Z</time>
      </trkpt>
      <trkpt lat="49.1442" lon="-0.4761">
        <ele>35</ele>
        <time>2011-01-04T15:50:31Z</time>
      </trkpt>
      <trkpt lat="49.14422" lon="-0.47588">
        <ele>35</ele>
        <time>2011-01-04T15:50:49Z</time>
      </trkpt>
      <trkpt lat="49.14425" lon="-0.47568">
        <ele>35</ele>
        <time>2011-01-04T15:51:11Z</time>
      </trkpt>
      <trkpt lat="49.14428" lon="-0.47545">
        <ele>35</ele>
        <time>2011-01-04T15:51:31Z</time>
      </trkpt>
      <trkpt lat="49.14435" lon="-0.47517">
        <ele>35</ele>
        <time>2011-01-04T15:51:53Z</time>
      </trkpt>
      <trkpt lat="49.14433" lon="-0.47495">
        <ele>36</ele>
        <time>2011-01-04T15:52:11Z</time>
      </trkpt>
      <trkpt lat="49.1444" lon="-0.47477">
        <ele>35</ele>
        <time>2011-01-04T15:52:37Z</time>
      </trkpt>
      <trkpt lat="49.14445" lon="-0.47457">
        <ele>34</ele>
        <time>2011-01-04T15:52:49Z</time>
      </trkpt>
      <trkpt lat="49.14453" lon="-0.47437">
        <ele>34</ele>
        <time>2011-01-04T15:53:07Z</time>
      </trkpt>
      <trkpt lat="49.14467" lon="-0.47413">
        <ele>34</ele>
        <time>2011-01-04T15:53:27Z</time>
      </trkpt>
      <trkpt lat="49.14477" lon="-0.47397">
        <ele>33</ele>
        <time>2011-01-04T15:53:39Z</time>
      </trkpt>
      <trkpt lat="49.14487" lon="-0.4738">
        <ele>33</ele>
        <time>2011-01-04T15:53:51Z</time>
      </trkpt>
      <trkpt lat="49.14493" lon="-0.47362">
        <ele>33</ele>
        <time>2011-01-04T15:54:01Z</time>
      </trkpt>
      <trkpt lat="49.14498" lon="-0.47342">
        <ele>34</ele>
        <time>2011-01-04T15:54:21Z</time>
      </trkpt>
      <trkpt lat="49.14513" lon="-0.47327">
        <ele>34</ele>
        <time>2011-01-04T15:54:39Z</time>
      </trkpt>
      <trkpt lat="49.14528" lon="-0.47308">
        <ele>33</ele>
        <time>2011-01-04T15:54:57Z</time>
      </trkpt>
      <trkpt lat="49.14525" lon="-0.4728">
        <ele>34</ele>
        <time>2011-01-04T15:55:15Z</time>
      </trkpt>
      <trkpt lat="49.14532" lon="-0.47258">
        <ele>34</ele>
        <time>2011-01-04T15:55:33Z</time>
      </trkpt>
      <trkpt lat="49.14542" lon="-0.47238">
        <ele>33</ele>
        <time>2011-01-04T15:55:53Z</time>
      </trkpt>
      <trkpt lat="49.14547" lon="-0.4721">
        <ele>32</ele>
        <time>2011-01-04T15:56:11Z</time>
      </trkpt>
      <trkpt lat="49.1455" lon="-0.47185">
        <ele>32</ele>
        <time>2011-01-04T15:56:29Z</time>
      </trkpt>
      <trkpt lat="49.14552" lon="-0.47163">
        <ele>32</ele>
        <time>2011-01-04T15:56:47Z</time>
      </trkpt>
      <trkpt lat="49.14555" lon="-0.47132">
        <ele>32</ele>
        <time>2011-01-04T15:57:05Z</time>
      </trkpt>
      <trkpt lat="49.14552" lon="-0.4711">
        <ele>32</ele>
        <time>2011-01-04T15:57:23Z</time>
      </trkpt>
      <trkpt lat="49.14538" lon="-0.47098">
        <ele>35</ele>
        <time>2011-01-04T15:57:43Z</time>
      </trkpt>
      <trkpt lat="49.1452" lon="-0.4709">
        <ele>39</ele>
        <time>2011-01-04T15:58:01Z</time>
      </trkpt>
      <trkpt lat="49.14507" lon="-0.47078">
        <ele>43</ele>
        <time>2011-01-04T15:58:21Z</time>
      </trkpt>
      <trkpt lat="49.1451" lon="-0.47058">
        <ele>42</ele>
        <time>2011-01-04T15:58:49Z</time>
      </trkpt>
      <trkpt lat="49.14502" lon="-0.4704">
        <ele>44</ele>
        <time>2011-01-04T15:59:09Z</time>
      </trkpt>
      <trkpt lat="49.14487" lon="-0.47027">
        <ele>47</ele>
        <time>2011-01-04T15:59:27Z</time>
      </trkpt>
      <trkpt lat="49.14472" lon="-0.47023">
        <ele>49</ele>
        <time>2011-01-04T15:59:45Z</time>
      </trkpt>
      <trkpt lat="49.14457" lon="-0.4702">
        <ele>52</ele>
        <time>2011-01-04T16:00:03Z</time>
      </trkpt>
      <trkpt lat="49.14442" lon="-0.47023">
        <ele>53</ele>
        <time>2011-01-04T16:00:25Z</time>
      </trkpt>
      <trkpt lat="49.14428" lon="-0.4703">
        <ele>55</ele>
        <time>2011-01-04T16:00:49Z</time>
      </trkpt>
      <trkpt lat="49.14415" lon="-0.47023">
        <ele>56</ele>
        <time>2011-01-04T16:01:11Z</time>
      </trkpt>
      <trkpt lat="49.14402" lon="-0.47013">
        <ele>57</ele>
        <time>2011-01-04T16:01:39Z</time>
      </trkpt>
      <trkpt lat="49.14383" lon="-0.47007">
        <ele>58</ele>
        <time>2011-01-04T16:01:57Z</time>
      </trkpt>
      <trkpt lat="49.14368" lon="-0.47">
        <ele>60</ele>
        <time>2011-01-04T16:02:15Z</time>
      </trkpt>
      <trkpt lat="49.14353" lon="-0.46992">
        <ele>61</ele>
        <time>2011-01-04T16:02:32Z</time>
      </trkpt>
      <trkpt lat="49.14337" lon="-0.46993">
        <ele>62</ele>
        <time>2011-01-04T16:02:50Z</time>
      </trkpt>
      <trkpt lat="49.14323" lon="-0.47002">
        <ele>63</ele>
        <time>2011-01-04T16:03:08Z</time>
      </trkpt>
      <trkpt lat="49.14313" lon="-0.47018">
        <ele>64</ele>
        <time>2011-01-04T16:03:28Z</time>
      </trkpt>
      <trkpt lat="49.14302" lon="-0.4703">
        <ele>65</ele>
        <time>2011-01-04T16:03:46Z</time>
      </trkpt>
      <trkpt lat="49.14287" lon="-0.47048">
        <ele>66</ele>
        <time>2011-01-04T16:04:04Z</time>
      </trkpt>
      <trkpt lat="49.14275" lon="-0.47065">
        <ele>66</ele>
        <time>2011-01-04T16:04:16Z</time>
      </trkpt>
      <trkpt lat="49.14263" lon="-0.4708">
        <ele>67</ele>
        <time>2011-01-04T16:04:28Z</time>
      </trkpt>
      <trkpt lat="49.14247" lon="-0.47102">
        <ele>68</ele>
        <time>2011-01-04T16:04:48Z</time>
      </trkpt>
      <trkpt lat="49.14232" lon="-0.47117">
        <ele>69</ele>
        <time>2011-01-04T16:05:06Z</time>
      </trkpt>
      <trkpt lat="49.14218" lon="-0.47132">
        <ele>69</ele>
        <time>2011-01-04T16:05:24Z</time>
      </trkpt>
      <trkpt lat="49.14203" lon="-0.47157">
        <ele>70</ele>
        <time>2011-01-04T16:05:42Z</time>
      </trkpt>
      <trkpt lat="49.14188" lon="-0.47163">
        <ele>71</ele>
        <time>2011-01-04T16:05:54Z</time>
      </trkpt>
      <trkpt lat="49.14172" lon="-0.47175">
        <ele>71</ele>
        <time>2011-01-04T16:06:12Z</time>
      </trkpt>
      <trkpt lat="49.14152" lon="-0.47187">
        <ele>72</ele>
        <time>2011-01-04T16:06:32Z</time>
      </trkpt>
      <trkpt lat="49.14135" lon="-0.47202">
        <ele>73</ele>
        <time>2011-01-04T16:06:50Z</time>
      </trkpt>
      <trkpt lat="49.1412" lon="-0.4721">
        <ele>73</ele>
        <time>2011-01-04T16:07:02Z</time>
      </trkpt>
      <trkpt lat="49.14102" lon="-0.47225">
        <ele>74</ele>
        <time>2011-01-04T16:07:20Z</time>
      </trkpt>
      <trkpt lat="49.14088" lon="-0.47235">
        <ele>74</ele>
        <time>2011-01-04T16:07:32Z</time>
      </trkpt>
      <trkpt lat="49.14072" lon="-0.4725">
        <ele>74</ele>
        <time>2011-01-04T16:07:50Z</time>
      </trkpt>
      <trkpt lat="49.14058" lon="-0.47265">
        <ele>74</ele>
        <time>2011-01-04T16:08:08Z</time>
      </trkpt>
      <trkpt lat="49.14045" lon="-0.47273">
        <ele>74</ele>
        <time>2011-01-04T16:08:50Z</time>
      </trkpt>
      <trkpt lat="49.14032" lon="-0.47267">
        <ele>74</ele>
        <time>2011-01-04T16:09:02Z</time>
      </trkpt>
      <trkpt lat="49.14018" lon="-0.4726">
        <ele>75</ele>
        <time>2011-01-04T16:09:14Z</time>
      </trkpt>
      <trkpt lat="49.14005" lon="-0.47252">
        <ele>75</ele>
        <time>2011-01-04T16:09:26Z</time>
      </trkpt>
      <trkpt lat="49.13992" lon="-0.47243">
        <ele>75</ele>
        <time>2011-01-04T16:09:38Z</time>
      </trkpt>
      <trkpt lat="49.13978" lon="-0.47238">
        <ele>76</ele>
        <time>2011-01-04T16:09:50Z</time>
      </trkpt>
      <trkpt lat="49.13965" lon="-0.47232">
        <ele>76</ele>
        <time>2011-01-04T16:10:02Z</time>
      </trkpt>
      <trkpt lat="49.13952" lon="-0.4722">
        <ele>77</ele>
        <time>2011-01-04T16:10:12Z</time>
      </trkpt>
      <trkpt lat="49.13937" lon="-0.47213">
        <ele>77</ele>
        <time>2011-01-04T16:10:22Z</time>
      </trkpt>
      <trkpt lat="49.13922" lon="-0.47208">
        <ele>78</ele>
        <time>2011-01-04T16:10:34Z</time>
      </trkpt>
      <trkpt lat="49.13903" lon="-0.472">
        <ele>78</ele>
        <time>2011-01-04T16:10:52Z</time>
      </trkpt>
      <trkpt lat="49.13883" lon="-0.47193">
        <ele>79</ele>
        <time>2011-01-04T16:11:10Z</time>
      </trkpt>
      <trkpt lat="49.13868" lon="-0.47188">
        <ele>79</ele>
        <time>2011-01-04T16:11:22Z</time>
      </trkpt>
      <trkpt lat="49.13848" lon="-0.47182">
        <ele>79</ele>
        <time>2011-01-04T16:11:42Z</time>
      </trkpt>
      <trkpt lat="49.13828" lon="-0.4717">
        <ele>80</ele>
        <time>2011-01-04T16:12:00Z</time>
      </trkpt>
      <trkpt lat="49.13813" lon="-0.47162">
        <ele>80</ele>
        <time>2011-01-04T16:12:12Z</time>
      </trkpt>
      <trkpt lat="49.1379" lon="-0.47148">
        <ele>81</ele>
        <time>2011-01-04T16:12:30Z</time>
      </trkpt>
      <trkpt lat="49.13777" lon="-0.47145">
        <ele>81</ele>
        <time>2011-01-04T16:12:42Z</time>
      </trkpt>
      <trkpt lat="49.13763" lon="-0.47142">
        <ele>81</ele>
        <time>2011-01-04T16:12:54Z</time>
      </trkpt>
      <trkpt lat="49.13745" lon="-0.47135">
        <ele>82</ele>
        <time>2011-01-04T16:13:12Z</time>
      </trkpt>
      <trkpt lat="49.1373" lon="-0.47128">
        <ele>82</ele>
        <time>2011-01-04T16:13:24Z</time>
      </trkpt>
      <trkpt lat="49.13708" lon="-0.47122">
        <ele>82</ele>
        <time>2011-01-04T16:13:42Z</time>
      </trkpt>
      <trkpt lat="49.13695" lon="-0.47118">
        <ele>82</ele>
        <time>2011-01-04T16:13:54Z</time>
      </trkpt>
      <trkpt lat="49.13682" lon="-0.47113">
        <ele>82</ele>
        <time>2011-01-04T16:14:06Z</time>
      </trkpt>
      <trkpt lat="49.13668" lon="-0.47107">
        <ele>82</ele>
        <time>2011-01-04T16:14:26Z</time>
      </trkpt>
      <trkpt lat="49.13655" lon="-0.47102">
        <ele>83</ele>
        <time>2011-01-04T16:14:38Z</time>
      </trkpt>
      <trkpt lat="49.13642" lon="-0.47095">
        <ele>83</ele>
        <time>2011-01-04T16:14:50Z</time>
      </trkpt>
      <trkpt lat="49.13628" lon="-0.4709">
        <ele>83</ele>
        <time>2011-01-04T16:15:02Z</time>
      </trkpt>
      <trkpt lat="49.13615" lon="-0.47085">
        <ele>84</ele>
        <time>2011-01-04T16:15:14Z</time>
      </trkpt>
      <trkpt lat="49.13602" lon="-0.47108">
        <ele>84</ele>
        <time>2011-01-04T16:15:32Z</time>
      </trkpt>
      <trkpt lat="49.13588" lon="-0.47115">
        <ele>84</ele>
        <time>2011-01-04T16:15:44Z</time>
      </trkpt>
      <trkpt lat="49.1358" lon="-0.47133">
        <ele>84</ele>
        <time>2011-01-04T16:15:56Z</time>
      </trkpt>
      <trkpt lat="49.13572" lon="-0.4715">
        <ele>85</ele>
        <time>2011-01-04T16:16:08Z</time>
      </trkpt>
      <trkpt lat="49.13562" lon="-0.47167">
        <ele>85</ele>
        <time>2011-01-04T16:16:20Z</time>
      </trkpt>
      <trkpt lat="49.13542" lon="-0.47198">
        <ele>85</ele>
        <time>2011-01-04T16:16:44Z</time>
      </trkpt>
      <trkpt lat="49.13532" lon="-0.47215">
        <ele>85</ele>
        <time>2011-01-04T16:16:56Z</time>
      </trkpt>
      <trkpt lat="49.1352" lon="-0.4723">
        <ele>86</ele>
        <time>2011-01-04T16:17:08Z</time>
      </trkpt>
      <trkpt lat="49.13507" lon="-0.47242">
        <ele>86</ele>
        <time>2011-01-04T16:17:20Z</time>
      </trkpt>
      <trkpt lat="49.13495" lon="-0.47255">
        <ele>86</ele>
        <time>2011-01-04T16:17:32Z</time>
      </trkpt>
      <trkpt lat="49.13483" lon="-0.47267">
        <ele>86</ele>
        <time>2011-01-04T16:17:44Z</time>
      </trkpt>
      <trkpt lat="49.13465" lon="-0.47285">
        <ele>86</ele>
        <time>2011-01-04T16:18:02Z</time>
      </trkpt>
      <trkpt lat="49.13445" lon="-0.47305">
        <ele>85</ele>
        <time>2011-01-04T16:18:22Z</time>
      </trkpt>
      <trkpt lat="49.13432" lon="-0.47322">
        <ele>85</ele>
        <time>2011-01-04T16:18:39Z</time>
      </trkpt>
      <trkpt lat="49.13418" lon="-0.4733">
        <ele>84</ele>
        <time>2011-01-04T16:18:51Z</time>
      </trkpt>
      <trkpt lat="49.13402" lon="-0.47342">
        <ele>84</ele>
        <time>2011-01-04T16:19:09Z</time>
      </trkpt>
      <trkpt lat="49.1338" lon="-0.47355">
        <ele>84</ele>
        <time>2011-01-04T16:19:29Z</time>
      </trkpt>
      <trkpt lat="49.13367" lon="-0.47363">
        <ele>83</ele>
        <time>2011-01-04T16:19:41Z</time>
      </trkpt>
      <trkpt lat="49.1335" lon="-0.47377">
        <ele>83</ele>
        <time>2011-01-04T16:19:59Z</time>
      </trkpt>
      <trkpt lat="49.13337" lon="-0.47388">
        <ele>83</ele>
        <time>2011-01-04T16:20:11Z</time>
      </trkpt>
      <trkpt lat="49.13318" lon="-0.47408">
        <ele>83</ele>
        <time>2011-01-04T16:20:29Z</time>
      </trkpt>
      <trkpt lat="49.13298" lon="-0.47432">
        <ele>83</ele>
        <time>2011-01-04T16:20:47Z</time>
      </trkpt>
      <trkpt lat="49.13287" lon="-0.47445">
        <ele>83</ele>
        <time>2011-01-04T16:20:59Z</time>
      </trkpt>
      <trkpt lat="49.13272" lon="-0.47463">
        <ele>83</ele>
        <time>2011-01-04T16:21:17Z</time>
      </trkpt>
      <trkpt lat="49.13262" lon="-0.47478">
        <ele>83</ele>
        <time>2011-01-04T16:21:29Z</time>
      </trkpt>
      <trkpt lat="49.13252" lon="-0.47493">
        <ele>83</ele>
        <time>2011-01-04T16:21:47Z</time>
      </trkpt>
      <trkpt lat="49.13247" lon="-0.47513">
        <ele>83</ele>
        <time>2011-01-04T16:22:51Z</time>
      </trkpt>
      <trkpt lat="49.13235" lon="-0.4753">
        <ele>83</ele>
        <time>2011-01-04T16:23:03Z</time>
      </trkpt>
      <trkpt lat="49.13218" lon="-0.47555">
        <ele>83</ele>
        <time>2011-01-04T16:23:23Z</time>
      </trkpt>
      <trkpt lat="49.13207" lon="-0.4757">
        <ele>84</ele>
        <time>2011-01-04T16:23:35Z</time>
      </trkpt>
      <trkpt lat="49.13197" lon="-0.47585">
        <ele>84</ele>
        <time>2011-01-04T16:23:47Z</time>
      </trkpt>
      <trkpt lat="49.13173" lon="-0.4762">
        <ele>84</ele>
        <time>2011-01-04T16:24:13Z</time>
      </trkpt>
      <trkpt lat="49.13163" lon="-0.47637">
        <ele>84</ele>
        <time>2011-01-04T16:24:25Z</time>
      </trkpt>
      <trkpt lat="49.13153" lon="-0.47653">
        <ele>84</ele>
        <time>2011-01-04T16:24:37Z</time>
      </trkpt>
      <trkpt lat="49.13157" lon="-0.4768">
        <ele>83</ele>
        <time>2011-01-04T16:24:55Z</time>
      </trkpt>
      <trkpt lat="49.13167" lon="-0.47697">
        <ele>83</ele>
        <time>2011-01-04T16:25:07Z</time>
      </trkpt>
      <trkpt lat="49.13177" lon="-0.47713">
        <ele>82</ele>
        <time>2011-01-04T16:25:19Z</time>
      </trkpt>
      <trkpt lat="49.13187" lon="-0.4773">
        <ele>82</ele>
        <time>2011-01-04T16:25:31Z</time>
      </trkpt>
      <trkpt lat="49.13198" lon="-0.47747">
        <ele>82</ele>
        <time>2011-01-04T16:25:43Z</time>
      </trkpt>
      <trkpt lat="49.13215" lon="-0.4778">
        <ele>81</ele>
        <time>2011-01-04T16:26:05Z</time>
      </trkpt>
      <trkpt lat="49.13225" lon="-0.47797">
        <ele>81</ele>
        <time>2011-01-04T16:26:17Z</time>
      </trkpt>
      <trkpt lat="49.1324" lon="-0.47822">
        <ele>81</ele>
        <time>2011-01-04T16:26:35Z</time>
      </trkpt>
      <trkpt lat="49.1325" lon="-0.47837">
        <ele>80</ele>
        <time>2011-01-04T16:26:47Z</time>
      </trkpt>
      <trkpt lat="49.13267" lon="-0.47858">
        <ele>79</ele>
        <time>2011-01-04T16:27:07Z</time>
      </trkpt>
      <trkpt lat="49.13278" lon="-0.47877">
        <ele>79</ele>
        <time>2011-01-04T16:27:19Z</time>
      </trkpt>
      <trkpt lat="49.13297" lon="-0.47877">
        <ele>79</ele>
        <time>2011-01-04T16:27:37Z</time>
      </trkpt>
      <trkpt lat="49.1331" lon="-0.47888">
        <ele>79</ele>
        <time>2011-01-04T16:27:49Z</time>
      </trkpt>
      <trkpt lat="49.13327" lon="-0.47883">
        <ele>79</ele>
        <time>2011-01-04T16:28:07Z</time>
      </trkpt>
    </trkseg>
  </trk>
</gpx>